Cupertino, California
Current Conditions -  °F | °C
As of 9:53 AM on Friday 31 Oct 2014 (Local Time) from KSJC Reporting Station
Overcast Overcast  
Wind Chill: 62°   Ceiling: 3500
Heat Index: 62°   Visibility: 10mi
Dew Point: 54°   Wind: 6mph
Humidity: 75%   Direction: NA
Pressure: 29.89"   Gusts: NA
Location:  37.32°N, 122.02°W
Report Text: KSJC 311653Z VRB05KT 10SM FEW013 BKN035 OVC100 17/12 A2989 RMK AO2 SLP120 T01670122
Loading
Personal Weather Stations






























Interactive Weather Map
Tropical Storm Tracking
New forecast layout! Learn more

10-Day Weather Forecast

Advertisements
Track Severe Weather on mobile